DLH2GY EPKK-EFHK
Flight info
| Callsign | DLH2GY |
|---|---|
| Flight time | 1h 53m |
| Altitude | 35000 |
| Route | POBOK DCT KOTEK DCT SUTIK DCT BOKSU DCT INBOV DCT GUNTA DCT SOKVA DCT KEMET Q11 INTOR |
| Aircraft | A321/M-SDE3FGHIRWY/LB1 |
Departure
| Time | 2026-04-23 15:52 |
|---|---|
| Airport | Kraków John Paul II International Airport (EPKK) |
Arrival
| Time | 2026-04-23 17:45 |
|---|---|
| Airport | Helsinki Vantaa Airport (EFHK) |
| Time | Latitude | Longitude | Altitude | Speed | Heading |
|---|---|---|---|---|---|
| 2026-04-23 15:25 | 50.07330 | 19.80108 | 791 ft | 0 kts | 168° |
| 2026-04-23 15:41 | 50.07336 | 19.80106 | 791 ft | 2 kts | 168° |
| 2026-04-23 15:41 | 50.07355 | 19.80099 | 791 ft | 3 kts | 165° |
| 2026-04-23 15:41 | 50.07375 | 19.80090 | 791 ft | 3 kts | 158° |
| 2026-04-23 15:41 | 50.07392 | 19.80077 | 791 ft | 3 kts | 140° |
| 2026-04-23 15:42 | 50.07403 | 19.80058 | 791 ft | 3 kts | 96° |
| 2026-04-23 15:42 | 50.07403 | 19.80038 | 791 ft | 3 kts | 78° |
| 2026-04-23 15:42 | 50.07400 | 19.80022 | 791 ft | 0 kts | 78° |
| 2026-04-23 15:45 | 50.07401 | 19.80029 | 791 ft | 2 kts | 78° |
| 2026-04-23 15:45 | 50.07405 | 19.80054 | 791 ft | 3 kts | 78° |
| 2026-04-23 15:46 | 50.07411 | 19.80097 | 791 ft | 5 kts | 78° |
| 2026-04-23 15:46 | 50.07419 | 19.80155 | 791 ft | 6 kts | 78° |
| 2026-04-23 15:46 | 50.07429 | 19.80227 | 791 ft | 8 kts | 78° |
| 2026-04-23 15:46 | 50.07441 | 19.80314 | 791 ft | 9 kts | 78° |
| 2026-04-23 15:47 | 50.07480 | 19.80383 | 791 ft | 9 kts | 18° |
| 2026-04-23 15:47 | 50.07545 | 19.80415 | 791 ft | 10 kts | 17° |
| 2026-04-23 15:47 | 50.07619 | 19.80413 | 791 ft | 11 kts | 348° |
| 2026-04-23 15:47 | 50.07699 | 19.80387 | 791 ft | 12 kts | 348° |
| 2026-04-23 15:48 | 50.07782 | 19.80359 | 791 ft | 10 kts | 348° |
| 2026-04-23 15:48 | 50.07832 | 19.80342 | 791 ft | 3 kts | 347° |
| 2026-04-23 15:48 | 50.07840 | 19.80339 | 791 ft | 0 kts | 347° |
| 2026-04-23 15:50 | 50.07859 | 19.80332 | 791 ft | 6 kts | 347° |
| 2026-04-23 15:50 | 50.07911 | 19.80314 | 791 ft | 9 kts | 347° |
| 2026-04-23 15:50 | 50.07977 | 19.80291 | 790 ft | 11 kts | 347° |
| 2026-04-23 15:51 | 50.08018 | 19.80254 | 790 ft | 6 kts | 279° |
| 2026-04-23 15:51 | 50.08017 | 19.80233 | 790 ft | 0 kts | 262° |
| 2026-04-23 15:51 | 50.08016 | 19.80219 | 790 ft | 3 kts | 262° |
| 2026-04-23 15:51 | 50.07981 | 19.79959 | 790 ft | 60 kts | 258° |
| 2026-04-23 15:52 | 50.07840 | 19.78956 | 793 ft | 127 kts | 258° |
| 2026-04-23 15:52 | 50.07612 | 19.77334 | 943 ft | 164 kts | 263° |
| 2026-04-23 15:52 | 50.07353 | 19.75685 | 1751 ft | 158 kts | 265° |
| 2026-04-23 15:52 | 50.07129 | 19.73998 | 2504 ft | 159 kts | 266° |
| 2026-04-23 15:53 | 50.06902 | 19.72245 | 3068 ft | 171 kts | 264° |
| 2026-04-23 15:53 | 50.06643 | 19.70348 | 3488 ft | 187 kts | 264° |
| 2026-04-23 15:53 | 50.06366 | 19.68312 | 3890 ft | 203 kts | 264° |
| 2026-04-23 15:53 | 50.06102 | 19.66050 | 4149 ft | 221 kts | 273° |
| 2026-04-23 15:54 | 50.06501 | 19.63764 | 4394 ft | 224 kts | 310° |
| 2026-04-23 15:54 | 50.07813 | 19.62359 | 4769 ft | 239 kts | 340° |
| 2026-04-23 15:54 | 50.09437 | 19.61742 | 5077 ft | 245 kts | 349° |
| 2026-04-23 15:54 | 50.11127 | 19.61326 | 5302 ft | 246 kts | 350° |
| 2026-04-23 15:55 | 50.12839 | 19.61236 | 5530 ft | 250 kts | 9° |
| 2026-04-23 15:55 | 50.14474 | 19.62206 | 5793 ft | 255 kts | 25° |
| 2026-04-23 15:55 | 50.15927 | 19.63799 | 5987 ft | 260 kts | 37° |
| 2026-04-23 15:55 | 50.17275 | 19.65682 | 6020 ft | 259 kts | 36° |
| 2026-04-23 15:56 | 50.18639 | 19.67523 | 6010 ft | 259 kts | 36° |
| 2026-04-23 15:56 | 50.20006 | 19.69340 | 6063 ft | 258 kts | 36° |
| 2026-04-23 15:56 | 50.21358 | 19.71164 | 6315 ft | 260 kts | 36° |
| 2026-04-23 15:56 | 50.22724 | 19.73023 | 6546 ft | 261 kts | 36° |
| 2026-04-23 15:57 | 50.24092 | 19.74904 | 6776 ft | 262 kts | 36° |
| 2026-04-23 15:57 | 50.25458 | 19.76788 | 7018 ft | 262 kts | 36° |
| 2026-04-23 15:57 | 50.26812 | 19.78643 | 7222 ft | 262 kts | 36° |
| 2026-04-23 15:57 | 50.28185 | 19.80516 | 7466 ft | 261 kts | 36° |
| 2026-04-23 15:58 | 50.29572 | 19.82375 | 7722 ft | 262 kts | 36° |
| 2026-04-23 15:58 | 50.30968 | 19.84218 | 8003 ft | 262 kts | 36° |
| 2026-04-23 15:58 | 50.32358 | 19.86073 | 8666 ft | 262 kts | 37° |
| 2026-04-23 15:58 | 50.33729 | 19.87953 | 9401 ft | 267 kts | 37° |
| 2026-04-23 15:59 | 50.35129 | 19.89890 | 10141 ft | 269 kts | 37° |
| 2026-04-23 15:59 | 50.36587 | 19.91907 | 10443 ft | 290 kts | 37° |
| 2026-04-23 15:59 | 50.38140 | 19.94031 | 10694 ft | 307 kts | 37° |
| 2026-04-23 15:59 | 50.39798 | 19.96281 | 10985 ft | 323 kts | 37° |
| 2026-04-23 16:00 | 50.41540 | 19.98633 | 11314 ft | 336 kts | 37° |
| 2026-04-23 16:00 | 50.43342 | 20.01097 | 11568 ft | 351 kts | 38° |
| 2026-04-23 16:00 | 50.45171 | 20.03633 | 12125 ft | 355 kts | 38° |
| 2026-04-23 16:00 | 50.47032 | 20.06233 | 12690 ft | 359 kts | 38° |
| 2026-04-23 16:01 | 50.48909 | 20.08851 | 13278 ft | 362 kts | 38° |
| 2026-04-23 16:01 | 50.50805 | 20.11484 | 13880 ft | 365 kts | 38° |
| 2026-04-23 16:01 | 50.52720 | 20.14138 | 14437 ft | 368 kts | 38° |
| 2026-04-23 16:01 | 50.54625 | 20.16772 | 14976 ft | 370 kts | 38° |
| 2026-04-23 16:02 | 50.56568 | 20.19441 | 15502 ft | 371 kts | 36° |
| 2026-04-23 16:02 | 50.58712 | 20.21709 | 16012 ft | 370 kts | 25° |
| 2026-04-23 16:02 | 50.61085 | 20.23296 | 16537 ft | 370 kts | 16° |
| 2026-04-23 16:02 | 50.63551 | 20.24517 | 17060 ft | 372 kts | 16° |
| 2026-04-23 16:03 | 50.65991 | 20.25762 | 17566 ft | 374 kts | 17° |
| 2026-04-23 16:03 | 50.68455 | 20.27136 | 18078 ft | 377 kts | 18° |
| 2026-04-23 16:03 | 50.70926 | 20.28596 | 18527 ft | 380 kts | 19° |
| 2026-04-23 16:03 | 50.73409 | 20.30100 | 18966 ft | 381 kts | 19° |
| 2026-04-23 16:04 | 50.75892 | 20.31606 | 19408 ft | 383 kts | 19° |
| 2026-04-23 16:04 | 50.78364 | 20.33089 | 19867 ft | 384 kts | 19° |
| 2026-04-23 16:04 | 50.80877 | 20.34578 | 20315 ft | 386 kts | 19° |
| 2026-04-23 16:04 | 50.83404 | 20.36063 | 20762 ft | 387 kts | 19° |
| 2026-04-23 16:05 | 50.85082 | 20.37046 | 21052 ft | 388 kts | 19° |
| 2026-04-23 16:05 | 50.88486 | 20.39043 | 21643 ft | 390 kts | 19° |
| 2026-04-23 16:05 | 50.91006 | 20.40526 | 22057 ft | 392 kts | 19° |
| 2026-04-23 16:05 | 50.93571 | 20.42039 | 22476 ft | 393 kts | 19° |
| 2026-04-23 16:06 | 50.96143 | 20.43559 | 22893 ft | 395 kts | 19° |
| 2026-04-23 16:06 | 50.98701 | 20.45075 | 23300 ft | 397 kts | 20° |
| 2026-04-23 16:06 | 51.01303 | 20.46621 | 23685 ft | 399 kts | 20° |
| 2026-04-23 16:06 | 51.03903 | 20.48170 | 24034 ft | 400 kts | 20° |
| 2026-04-23 16:07 | 51.06520 | 20.49729 | 24386 ft | 401 kts | 20° |
| 2026-04-23 16:07 | 51.09112 | 20.51272 | 24730 ft | 402 kts | 20° |
| 2026-04-23 16:07 | 51.11734 | 20.52834 | 25077 ft | 403 kts | 20° |
| 2026-04-23 16:07 | 51.14375 | 20.54409 | 25407 ft | 404 kts | 20° |
| 2026-04-23 16:08 | 51.17017 | 20.55982 | 25721 ft | 405 kts | 20° |
| 2026-04-23 16:08 | 51.19668 | 20.57563 | 26032 ft | 406 kts | 20° |
| 2026-04-23 16:08 | 51.22284 | 20.59130 | 26313 ft | 407 kts | 20° |
| 2026-04-23 16:08 | 51.24947 | 20.60731 | 26584 ft | 408 kts | 20° |
| 2026-04-23 16:09 | 51.27608 | 20.62332 | 26847 ft | 409 kts | 20° |
| 2026-04-23 16:09 | 51.30275 | 20.63934 | 27180 ft | 408 kts | 20° |
| 2026-04-23 16:09 | 51.32936 | 20.65532 | 27553 ft | 406 kts | 20° |
| 2026-04-23 16:09 | 51.35542 | 20.67102 | 27933 ft | 404 kts | 20° |
| 2026-04-23 16:10 | 51.38172 | 20.68688 | 28323 ft | 402 kts | 20° |
| 2026-04-23 16:10 | 51.40801 | 20.70276 | 28711 ft | 400 kts | 20° |
| 2026-04-23 16:10 | 51.43377 | 20.71835 | 29078 ft | 399 kts | 20° |
| 2026-04-23 16:10 | 51.45963 | 20.73402 | 29459 ft | 397 kts | 20° |
| 2026-04-23 16:11 | 51.48548 | 20.74971 | 29835 ft | 395 kts | 20° |
| 2026-04-23 16:11 | 51.51121 | 20.76536 | 30188 ft | 394 kts | 20° |
| 2026-04-23 16:11 | 51.53651 | 20.78074 | 30491 ft | 392 kts | 20° |
| 2026-04-23 16:11 | 51.56205 | 20.79629 | 30803 ft | 391 kts | 19° |
| 2026-04-23 16:12 | 51.58743 | 20.81176 | 31116 ft | 389 kts | 20° |
| 2026-04-23 16:12 | 51.61246 | 20.82703 | 31423 ft | 388 kts | 20° |
| 2026-04-23 16:12 | 51.63767 | 20.84244 | 31743 ft | 386 kts | 20° |
| 2026-04-23 16:12 | 51.66288 | 20.85783 | 32054 ft | 385 kts | 19° |
| 2026-04-23 16:13 | 51.68762 | 20.87288 | 32363 ft | 383 kts | 19° |
| 2026-04-23 16:13 | 51.73741 | 20.90335 | 32987 ft | 381 kts | 20° |
| 2026-04-23 16:13 | 51.76223 | 20.91859 | 33289 ft | 379 kts | 20° |
| 2026-04-23 16:14 | 51.78657 | 20.93354 | 33590 ft | 378 kts | 20° |
| 2026-04-23 16:14 | 51.81106 | 20.94864 | 33900 ft | 377 kts | 20° |
| 2026-04-23 16:14 | 51.83559 | 20.96380 | 34152 ft | 376 kts | 20° |
| 2026-04-23 16:14 | 51.85180 | 20.97381 | 34298 ft | 376 kts | 20° |
| 2026-04-23 16:15 | 51.87624 | 20.98892 | 34506 ft | 376 kts | 20° |
| 2026-04-23 16:15 | 51.90867 | 21.00897 | 34760 ft | 376 kts | 20° |
| 2026-04-23 16:15 | 51.93321 | 21.02411 | 34928 ft | 378 kts | 20° |
| 2026-04-23 16:15 | 51.95784 | 21.03933 | 34980 ft | 380 kts | 20° |
| 2026-04-23 16:16 | 51.99901 | 21.06486 | 34997 ft | 380 kts | 20° |
| 2026-04-23 16:16 | 52.04824 | 21.09553 | 34996 ft | 381 kts | 20° |
| 2026-04-23 16:17 | 52.09784 | 21.12653 | 35005 ft | 381 kts | 20° |
| 2026-04-23 16:17 | 52.14703 | 21.15726 | 35000 ft | 380 kts | 20° |
| 2026-04-23 16:18 | 52.19653 | 21.18827 | 35009 ft | 381 kts | 20° |
| 2026-04-23 16:18 | 52.24607 | 21.21936 | 35010 ft | 381 kts | 20° |
| 2026-04-23 16:19 | 52.29541 | 21.25048 | 35013 ft | 381 kts | 20° |
| 2026-04-23 16:19 | 52.34501 | 21.28181 | 35007 ft | 382 kts | 20° |
| 2026-04-23 16:20 | 52.39435 | 21.31300 | 34999 ft | 381 kts | 20° |
| 2026-04-23 16:20 | 52.44364 | 21.34422 | 34991 ft | 381 kts | 20° |
| 2026-04-23 16:21 | 52.49310 | 21.37568 | 34995 ft | 381 kts | 20° |
| 2026-04-23 16:21 | 52.54225 | 21.40899 | 34989 ft | 382 kts | 26° |
| 2026-04-23 16:22 | 52.58874 | 21.45052 | 34993 ft | 382 kts | 27° |
| 2026-04-23 16:22 | 52.63558 | 21.49236 | 34993 ft | 382 kts | 26° |
| 2026-04-23 16:23 | 52.68208 | 21.53409 | 34993 ft | 382 kts | 27° |
| 2026-04-23 16:23 | 52.72880 | 21.57611 | 34991 ft | 382 kts | 26° |
| 2026-04-23 16:24 | 52.77529 | 21.61797 | 34994 ft | 382 kts | 27° |
| 2026-04-23 16:24 | 52.82199 | 21.66019 | 34991 ft | 382 kts | 27° |
| 2026-04-23 16:25 | 52.86844 | 21.70229 | 34994 ft | 382 kts | 27° |
| 2026-04-23 16:25 | 52.91518 | 21.74459 | 34994 ft | 382 kts | 27° |
| 2026-04-23 16:26 | 52.96158 | 21.78677 | 34992 ft | 382 kts | 27° |
| 2026-04-23 16:26 | 53.00828 | 21.82941 | 34994 ft | 382 kts | 27° |
| 2026-04-23 16:27 | 53.05485 | 21.87206 | 34981 ft | 382 kts | 27° |
| 2026-04-23 16:27 | 53.10112 | 21.91455 | 34985 ft | 382 kts | 27° |
| 2026-04-23 16:28 | 53.14784 | 21.95742 | 34982 ft | 382 kts | 27° |
| 2026-04-23 16:28 | 53.19410 | 22.00007 | 34987 ft | 382 kts | 27° |
| 2026-04-23 16:29 | 53.24064 | 22.04303 | 34989 ft | 382 kts | 27° |
| 2026-04-23 16:29 | 53.28685 | 22.08587 | 34981 ft | 382 kts | 27° |
| 2026-04-23 16:30 | 53.33335 | 22.12909 | 34980 ft | 382 kts | 27° |
| 2026-04-23 16:30 | 53.37955 | 22.17207 | 34980 ft | 382 kts | 27° |
| 2026-04-23 16:31 | 53.42611 | 22.21543 | 34982 ft | 382 kts | 27° |
| 2026-04-23 16:31 | 53.47257 | 22.25883 | 34983 ft | 382 kts | 27° |
| 2026-04-23 16:32 | 53.51880 | 22.30228 | 34979 ft | 382 kts | 27° |
| 2026-04-23 16:32 | 53.56490 | 22.34565 | 34978 ft | 382 kts | 27° |
| 2026-04-23 16:33 | 53.61136 | 22.38940 | 34978 ft | 382 kts | 27° |
| 2026-04-23 16:33 | 53.65776 | 22.43314 | 34973 ft | 382 kts | 27° |
| 2026-04-23 16:34 | 53.70388 | 22.47682 | 34975 ft | 382 kts | 27° |
| 2026-04-23 16:34 | 53.75017 | 22.52085 | 34967 ft | 382 kts | 27° |
| 2026-04-23 16:35 | 53.79666 | 22.56515 | 34966 ft | 382 kts | 27° |
| 2026-04-23 16:35 | 53.84292 | 22.60924 | 34963 ft | 382 kts | 27° |
| 2026-04-23 16:36 | 53.88929 | 22.65368 | 34955 ft | 383 kts | 27° |
| 2026-04-23 16:36 | 53.93535 | 22.69779 | 34957 ft | 383 kts | 27° |
| 2026-04-23 16:37 | 53.98189 | 22.74245 | 34954 ft | 383 kts | 28° |
| 2026-04-23 16:37 | 54.02808 | 22.78711 | 34951 ft | 383 kts | 28° |
| 2026-04-23 16:38 | 54.07454 | 22.83210 | 34946 ft | 383 kts | 28° |
| 2026-04-23 16:38 | 54.12074 | 22.87669 | 34943 ft | 384 kts | 28° |
| 2026-04-23 16:39 | 54.16725 | 22.92183 | 34944 ft | 384 kts | 28° |
| 2026-04-23 16:39 | 54.21344 | 22.96694 | 34937 ft | 384 kts | 28° |
| 2026-04-23 16:40 | 54.25990 | 23.01250 | 34937 ft | 384 kts | 28° |
| 2026-04-23 16:40 | 54.30711 | 23.05489 | 34932 ft | 383 kts | 19° |
| 2026-04-23 16:41 | 54.35877 | 23.07469 | 34930 ft | 383 kts | 11° |
| 2026-04-23 16:41 | 54.41142 | 23.09056 | 34926 ft | 383 kts | 11° |
| 2026-04-23 16:42 | 54.46373 | 23.10647 | 34927 ft | 384 kts | 11° |
| 2026-04-23 16:42 | 54.51640 | 23.12247 | 34925 ft | 384 kts | 11° |
| 2026-04-23 16:43 | 54.56869 | 23.13844 | 34923 ft | 384 kts | 11° |
| 2026-04-23 16:43 | 54.62132 | 23.15450 | 34926 ft | 384 kts | 11° |
| 2026-04-23 16:44 | 54.67402 | 23.17074 | 34921 ft | 384 kts | 11° |
| 2026-04-23 16:44 | 54.72644 | 23.18683 | 34921 ft | 384 kts | 11° |
| 2026-04-23 16:45 | 54.77883 | 23.20300 | 34921 ft | 384 kts | 11° |
| 2026-04-23 16:45 | 54.83150 | 23.21927 | 34919 ft | 384 kts | 11° |
| 2026-04-23 16:46 | 54.88418 | 23.23556 | 34923 ft | 384 kts | 11° |
| 2026-04-23 16:46 | 54.93650 | 23.25173 | 34924 ft | 384 kts | 11° |
| 2026-04-23 16:47 | 54.98921 | 23.26810 | 34924 ft | 384 kts | 12° |
| 2026-04-23 16:47 | 55.04183 | 23.28463 | 34921 ft | 384 kts | 12° |
| 2026-04-23 16:48 | 55.09419 | 23.30114 | 34922 ft | 384 kts | 12° |
| 2026-04-23 16:48 | 55.14682 | 23.31770 | 34919 ft | 384 kts | 12° |
| 2026-04-23 16:49 | 55.19915 | 23.33413 | 34921 ft | 384 kts | 12° |
| 2026-04-23 16:49 | 55.25176 | 23.35073 | 34921 ft | 384 kts | 12° |
| 2026-04-23 16:50 | 55.30447 | 23.36741 | 34925 ft | 384 kts | 12° |
| 2026-04-23 16:50 | 55.35713 | 23.38409 | 34927 ft | 384 kts | 12° |
| 2026-04-23 16:51 | 55.40941 | 23.40078 | 34930 ft | 384 kts | 12° |
| 2026-04-23 16:51 | 55.46207 | 23.41789 | 34929 ft | 384 kts | 12° |
| 2026-04-23 16:52 | 55.51408 | 23.43668 | 34931 ft | 383 kts | 13° |
| 2026-04-23 16:52 | 55.56643 | 23.45626 | 34931 ft | 383 kts | 13° |
| 2026-04-23 16:53 | 55.61841 | 23.47549 | 34929 ft | 383 kts | 13° |
| 2026-04-23 16:53 | 55.67053 | 23.49452 | 34930 ft | 383 kts | 13° |
| 2026-04-23 16:54 | 55.72282 | 23.51353 | 34932 ft | 383 kts | 13° |
| 2026-04-23 16:54 | 55.77521 | 23.53270 | 34932 ft | 383 kts | 13° |
| 2026-04-23 16:55 | 55.82718 | 23.55183 | 34935 ft | 383 kts | 13° |
| 2026-04-23 16:55 | 55.87952 | 23.57127 | 34961 ft | 384 kts | 13° |
| 2026-04-23 16:56 | 55.93157 | 23.59062 | 34960 ft | 384 kts | 13° |
| 2026-04-23 16:56 | 55.98372 | 23.60994 | 34957 ft | 384 kts | 13° |
| 2026-04-23 16:57 | 56.03616 | 23.62946 | 34951 ft | 384 kts | 13° |
| 2026-04-23 16:57 | 56.08836 | 23.64901 | 34947 ft | 384 kts | 13° |
| 2026-04-23 16:58 | 56.14043 | 23.66855 | 34943 ft | 384 kts | 13° |
| 2026-04-23 16:58 | 56.19290 | 23.68821 | 34944 ft | 385 kts | 13° |
| 2026-04-23 16:59 | 56.24515 | 23.70771 | 34943 ft | 385 kts | 13° |
| 2026-04-23 16:59 | 56.29763 | 23.72754 | 34948 ft | 385 kts | 13° |
| 2026-04-23 17:00 | 56.34976 | 23.74735 | 34944 ft | 385 kts | 13° |
| 2026-04-23 17:00 | 56.40232 | 23.76685 | 34952 ft | 385 kts | 12° |
| 2026-04-23 17:01 | 56.45503 | 23.78472 | 34951 ft | 385 kts | 11° |
| 2026-04-23 17:01 | 56.50742 | 23.80222 | 34954 ft | 385 kts | 12° |
| 2026-04-23 17:02 | 56.56015 | 23.82020 | 34946 ft | 384 kts | 11° |
| 2026-04-23 17:02 | 56.61231 | 23.83829 | 34946 ft | 383 kts | 12° |
| 2026-04-23 17:03 | 56.66452 | 23.85644 | 34953 ft | 384 kts | 12° |
| 2026-04-23 17:03 | 56.71703 | 23.87470 | 34950 ft | 384 kts | 12° |
| 2026-04-23 17:04 | 56.76937 | 23.89295 | 34949 ft | 384 kts | 11° |
| 2026-04-23 17:04 | 56.82189 | 23.91111 | 34946 ft | 384 kts | 11° |
| 2026-04-23 17:05 | 56.87451 | 23.92953 | 34944 ft | 384 kts | 11° |
| 2026-04-23 17:05 | 56.92673 | 23.94795 | 34942 ft | 384 kts | 11° |
| 2026-04-23 17:06 | 56.97923 | 23.96645 | 34946 ft | 384 kts | 11° |
| 2026-04-23 17:06 | 57.03150 | 23.98475 | 34946 ft | 384 kts | 11° |
| 2026-04-23 17:07 | 57.08399 | 24.00335 | 34950 ft | 383 kts | 11° |
| 2026-04-23 17:07 | 57.13618 | 24.02192 | 34957 ft | 383 kts | 11° |
| 2026-04-23 17:08 | 57.18854 | 24.04051 | 34959 ft | 383 kts | 11° |
| 2026-04-23 17:08 | 57.24066 | 24.05917 | 34956 ft | 383 kts | 11° |
| 2026-04-23 17:09 | 57.29302 | 24.07803 | 34963 ft | 383 kts | 11° |
| 2026-04-23 17:09 | 57.34531 | 24.09679 | 34957 ft | 382 kts | 11° |
| 2026-04-23 17:10 | 57.39723 | 24.11545 | 34958 ft | 382 kts | 11° |
| 2026-04-23 17:10 | 57.44951 | 24.13425 | 34954 ft | 382 kts | 11° |
| 2026-04-23 17:11 | 57.50142 | 24.15307 | 34959 ft | 381 kts | 11° |
| 2026-04-23 17:11 | 57.55360 | 24.17206 | 34953 ft | 381 kts | 11° |
| 2026-04-23 17:12 | 57.60540 | 24.19097 | 34951 ft | 381 kts | 10° |
| 2026-04-23 17:12 | 57.65751 | 24.20993 | 34949 ft | 381 kts | 10° |
| 2026-04-23 17:13 | 57.70956 | 24.22899 | 34949 ft | 380 kts | 10° |
| 2026-04-23 17:13 | 57.76116 | 24.24782 | 34945 ft | 380 kts | 10° |
| 2026-04-23 17:14 | 57.81313 | 24.26701 | 34946 ft | 380 kts | 10° |
| 2026-04-23 17:14 | 57.86461 | 24.28626 | 34945 ft | 379 kts | 10° |
| 2026-04-23 17:15 | 57.91643 | 24.30536 | 34948 ft | 379 kts | 10° |
| 2026-04-23 17:15 | 57.96811 | 24.32327 | 34937 ft | 378 kts | 9° |
| 2026-04-23 17:16 | 58.01991 | 24.34090 | 34945 ft | 378 kts | 10° |
| 2026-04-23 17:16 | 58.07107 | 24.36261 | 34939 ft | 378 kts | 12° |
| 2026-04-23 17:17 | 58.12186 | 24.38641 | 34937 ft | 377 kts | 12° |
| 2026-04-23 17:17 | 58.17297 | 24.40993 | 34926 ft | 377 kts | 12° |
| 2026-04-23 17:18 | 58.24928 | 24.44414 | 34930 ft | 376 kts | 11° |
| 2026-04-23 17:19 | 58.30034 | 24.46697 | 34924 ft | 376 kts | 11° |
| 2026-04-23 17:19 | 58.35100 | 24.48978 | 34922 ft | 376 kts | 11° |
| 2026-04-23 17:20 | 58.40193 | 24.51284 | 34917 ft | 376 kts | 11° |
| 2026-04-23 17:21 | 58.50351 | 24.55892 | 34919 ft | 375 kts | 11° |
| 2026-04-23 17:21 | 58.57956 | 24.59366 | 34921 ft | 375 kts | 11° |
| 2026-04-23 17:22 | 58.65591 | 24.62872 | 34922 ft | 375 kts | 11° |
| 2026-04-23 17:23 | 58.73181 | 24.66360 | 34922 ft | 375 kts | 11° |
| 2026-04-23 17:24 | 58.80762 | 24.69869 | 34904 ft | 374 kts | 11° |
| 2026-04-23 17:24 | 58.88371 | 24.73423 | 34916 ft | 374 kts | 11° |
| 2026-04-23 17:25 | 58.95938 | 24.76957 | 34914 ft | 374 kts | 11° |
| 2026-04-23 17:26 | 59.05258 | 24.80796 | 33964 ft | 375 kts | 358° |
| 2026-04-23 17:27 | 59.10450 | 24.80047 | 32386 ft | 371 kts | 357° |
| 2026-04-23 17:27 | 59.12994 | 24.79771 | 31413 ft | 361 kts | 357° |
| 2026-04-23 17:27 | 59.15471 | 24.79524 | 30248 ft | 353 kts | 357° |
| 2026-04-23 17:27 | 59.17886 | 24.79276 | 28776 ft | 350 kts | 356° |
| 2026-04-23 17:28 | 59.20321 | 24.79016 | 27212 ft | 348 kts | 356° |
| 2026-04-23 17:28 | 59.22706 | 24.78752 | 25794 ft | 345 kts | 356° |
| 2026-04-23 17:28 | 59.25089 | 24.78480 | 24469 ft | 340 kts | 355° |
| 2026-04-23 17:28 | 59.27437 | 24.78204 | 23213 ft | 338 kts | 355° |
| 2026-04-23 17:29 | 59.29793 | 24.77935 | 21878 ft | 339 kts | 355° |
| 2026-04-23 17:29 | 59.32152 | 24.77680 | 20625 ft | 338 kts | 356° |
| 2026-04-23 17:29 | 59.36895 | 24.77103 | 18667 ft | 345 kts | 355° |
| 2026-04-23 17:30 | 59.39289 | 24.76782 | 17800 ft | 344 kts | 355° |
| 2026-04-23 17:30 | 59.44062 | 24.76169 | 16054 ft | 342 kts | 355° |
| 2026-04-23 17:30 | 59.46404 | 24.75893 | 15252 ft | 340 kts | 356° |
| 2026-04-23 17:31 | 59.48764 | 24.75631 | 14478 ft | 338 kts | 356° |
| 2026-04-23 17:31 | 59.51093 | 24.75383 | 14070 ft | 327 kts | 355° |
| 2026-04-23 17:31 | 59.53309 | 24.75134 | 13840 ft | 311 kts | 355° |
| 2026-04-23 17:31 | 59.55424 | 24.74895 | 13579 ft | 297 kts | 355° |
| 2026-04-23 17:32 | 59.57426 | 24.74656 | 13297 ft | 285 kts | 355° |
| 2026-04-23 17:32 | 59.59371 | 24.74412 | 12965 ft | 276 kts | 356° |
| 2026-04-23 17:32 | 59.61280 | 24.74179 | 12446 ft | 273 kts | 356° |
| 2026-04-23 17:32 | 59.63172 | 24.73955 | 11957 ft | 271 kts | 356° |
| 2026-04-23 17:33 | 59.65050 | 24.73740 | 11468 ft | 269 kts | 356° |
| 2026-04-23 17:33 | 59.66890 | 24.73528 | 10979 ft | 267 kts | 356° |
| 2026-04-23 17:33 | 59.68744 | 24.73302 | 10591 ft | 263 kts | 356° |
| 2026-04-23 17:33 | 59.70538 | 24.73084 | 10449 ft | 250 kts | 356° |
| 2026-04-23 17:34 | 59.72218 | 24.72892 | 10281 ft | 240 kts | 356° |
| 2026-04-23 17:34 | 59.73873 | 24.72689 | 9990 ft | 236 kts | 356° |
| 2026-04-23 17:34 | 59.77120 | 24.72280 | 9236 ft | 233 kts | 356° |
| 2026-04-23 17:35 | 59.78727 | 24.72095 | 8793 ft | 235 kts | 356° |
| 2026-04-23 17:35 | 59.82041 | 24.71716 | 8089 ft | 239 kts | 356° |
| 2026-04-23 17:35 | 59.83694 | 24.71499 | 7984 ft | 237 kts | 356° |
| 2026-04-23 17:36 | 59.85351 | 24.71280 | 7914 ft | 240 kts | 356° |
| 2026-04-23 17:36 | 59.87005 | 24.71072 | 7915 ft | 241 kts | 356° |
| 2026-04-23 17:36 | 59.88689 | 24.70876 | 7895 ft | 243 kts | 356° |
| 2026-04-23 17:36 | 59.90389 | 24.70670 | 7870 ft | 244 kts | 356° |
| 2026-04-23 17:37 | 59.92044 | 24.70452 | 7681 ft | 237 kts | 356° |
| 2026-04-23 17:37 | 59.93677 | 24.70237 | 7341 ft | 235 kts | 356° |
| 2026-04-23 17:37 | 59.96962 | 24.69894 | 6482 ft | 240 kts | 356° |
| 2026-04-23 17:38 | 59.98634 | 24.69700 | 6054 ft | 242 kts | 356° |
| 2026-04-23 17:38 | 60.00320 | 24.69482 | 5617 ft | 243 kts | 356° |
| 2026-04-23 17:38 | 60.02010 | 24.69246 | 5234 ft | 242 kts | 356° |
| 2026-04-23 17:38 | 60.03682 | 24.69033 | 4894 ft | 240 kts | 355° |
| 2026-04-23 17:39 | 60.05322 | 24.68828 | 4721 ft | 231 kts | 355° |
| 2026-04-23 17:39 | 60.06878 | 24.68646 | 4551 ft | 221 kts | 355° |
| 2026-04-23 17:39 | 60.08396 | 24.68470 | 4396 ft | 217 kts | 355° |
| 2026-04-23 17:39 | 60.09909 | 24.68263 | 4226 ft | 217 kts | 355° |
| 2026-04-23 17:40 | 60.11414 | 24.68057 | 4063 ft | 216 kts | 355° |
| 2026-04-23 17:40 | 60.12890 | 24.67870 | 3944 ft | 214 kts | 356° |
| 2026-04-23 17:40 | 60.14387 | 24.67701 | 3799 ft | 215 kts | 356° |
| 2026-04-23 17:40 | 60.15875 | 24.67538 | 3632 ft | 214 kts | 356° |
| 2026-04-23 17:41 | 60.17367 | 24.67355 | 3475 ft | 215 kts | 355° |
| 2026-04-23 17:41 | 60.20286 | 24.67591 | 3212 ft | 205 kts | 18° |
| 2026-04-23 17:41 | 60.21491 | 24.69008 | 3037 ft | 198 kts | 37° |
| 2026-04-23 17:42 | 60.23256 | 24.72814 | 2664 ft | 177 kts | 44° |
| 2026-04-23 17:42 | 60.24084 | 24.74631 | 2328 ft | 175 kts | 44° |
| 2026-04-23 17:42 | 60.24894 | 24.76396 | 2078 ft | 169 kts | 44° |
| 2026-04-23 17:43 | 60.25671 | 24.78096 | 1810 ft | 159 kts | 43° |
| 2026-04-23 17:43 | 60.26377 | 24.79638 | 1692 ft | 140 kts | 43° |
| 2026-04-23 17:43 | 60.27018 | 24.81030 | 1454 ft | 135 kts | 43° |
| 2026-04-23 17:43 | 60.27662 | 24.82427 | 1239 ft | 135 kts | 44° |
| 2026-04-23 17:44 | 60.28300 | 24.83817 | 1063 ft | 135 kts | 44° |
| 2026-04-23 17:44 | 60.28932 | 24.85200 | 893 ft | 138 kts | 44° |
| 2026-04-23 17:44 | 60.30230 | 24.88054 | 523 ft | 137 kts | 44° |
| 2026-04-23 17:45 | 60.30882 | 24.89466 | 314 ft | 138 kts | 44° |
| 2026-04-23 17:45 | 60.32061 | 24.92071 | 161 ft | 92 kts | 47° |
| 2026-04-23 17:45 | 60.32355 | 24.92715 | 160 ft | 42 kts | 49° |
| 2026-04-23 17:46 | 60.32489 | 24.93489 | 162 ft | 23 kts | 78° |
| 2026-04-23 17:46 | 60.32523 | 24.93809 | 161 ft | 24 kts | 77° |
| 2026-04-23 17:46 | 60.32600 | 24.94056 | 161 ft | 14 kts | 46° |
| 2026-04-23 17:47 | 60.32673 | 24.94211 | 161 ft | 16 kts | 46° |
| 2026-04-23 17:47 | 60.32750 | 24.94386 | 161 ft | 18 kts | 48° |
| 2026-04-23 17:47 | 60.32932 | 24.94782 | 161 ft | 21 kts | 49° |
| 2026-04-23 17:48 | 60.33033 | 24.95006 | 161 ft | 22 kts | 47° |
| 2026-04-23 17:48 | 60.33141 | 24.95237 | 161 ft | 24 kts | 46° |
| 2026-04-23 17:48 | 60.33207 | 24.95500 | 161 ft | 20 kts | 103° |
| 2026-04-23 17:48 | 60.33146 | 24.95626 | 161 ft | 11 kts | 131° |
| 2026-04-23 17:49 | 60.33088 | 24.95740 | 161 ft | 13 kts | 137° |
| 2026-04-23 17:49 | 60.33009 | 24.95842 | 161 ft | 14 kts | 150° |
| 2026-04-23 17:49 | 60.32920 | 24.95948 | 161 ft | 13 kts | 146° |
| 2026-04-23 17:49 | 60.32917 | 24.96113 | 161 ft | 13 kts | 80° |
| 2026-04-23 17:50 | 60.32858 | 24.96237 | 161 ft | 14 kts | 151° |
| 2026-04-23 17:50 | 60.32675 | 24.96447 | 161 ft | 13 kts | 151° |
| 2026-04-23 17:50 | 60.32623 | 24.96505 | 161 ft | 6 kts | 151° |
| 2026-04-23 17:51 | 60.32605 | 24.96526 | 161 ft | 0 kts | 151° |
| 2026-04-23 17:51 | 60.32575 | 24.96560 | 162 ft | 9 kts | 151° |
| 2026-04-23 17:52 | 60.32499 | 24.96650 | 163 ft | 14 kts | 149° |
| 2026-04-23 17:52 | 60.32328 | 24.96825 | 161 ft | 12 kts | 153° |
| 2026-04-23 17:52 | 60.32251 | 24.96905 | 161 ft | 14 kts | 153° |
| 2026-04-23 17:53 | 60.32062 | 24.97100 | 161 ft | 15 kts | 152° |
| 2026-04-23 17:53 | 60.31985 | 24.97180 | 161 ft | 10 kts | 153° |
| 2026-04-23 17:53 | 60.31929 | 24.97154 | 161 ft | 10 kts | 230° |
| 2026-04-23 17:54 | 60.31864 | 24.97154 | 161 ft | 11 kts | 152° |
| 2026-04-23 17:54 | 60.31791 | 24.97231 | 161 ft | 13 kts | 152° |
| 2026-04-23 17:54 | 60.31726 | 24.97223 | 161 ft | 5 kts | 238° |
| 2026-04-23 17:55 | 60.31711 | 24.97165 | 161 ft | 2 kts | 242° |
| 2026-04-23 17:55 | 60.31710 | 24.97163 | 161 ft | 0 kts | 242° |